Dyna Bulk — J8QN4 — position and weather

sailwx.info

Track history (hours):
 
Tides and Currents Weather Stations Pressure Air Temp Water Temp Dewpoint Dewpoint Depression Visibility Wind Speed Wind Dir Waves Ship Positions

Dyna Bulk

Last reported at 2018-Apr-04 13:52 UTC. Time now 2018-Apr-26 11:38 UTC.
Position N 17°49' W 063°32'.
Warning: this ship's position is 21 days out of date.

Length 91 m; draft 4 m.

Type: Ship. MMSI: 377901055.

Date/timePositionNaut miles runAvg speedWind from/ knotsBaromVisibWave heightAir tempDewpointWater temp
2018-Apr-04 13:52N 17°49' W 063°32'410.8
2018-Apr-04 13:28N 17°50' W 063°28'511.2
2018-Apr-04 13:00N 17°52' W 063°23'611.1
2018-Apr-04 12:31N 17°55' W 063°18'510.8
2018-Apr-04 12:00N 17°57' W 063°13'610.8
2018-Apr-04 11:29N 17°59' W 063°07'4 6.8
2018-Apr-04 10:49N 18°00' W 063°03'0 0.0
2018-Apr-04 10:22N 18°00' W 063°03'0 0.0
2018-Apr-04 09:55N 18°00' W 063°03'0 0.0
2018-Apr-04 09:25N 18°00' W 063°03'0 0.0
2018-Apr-04 08:55N 18°00' W 063°03'0 0.0
2018-Apr-04 08:25N 18°00' W 063°03'0 0.0
2018-Apr-04 07:55N 18°00' W 063°03'0 0.0
2018-Apr-04 07:25N 18°00' W 063°03'0 0.0
2018-Apr-04 06:58N 18°00' W 063°03'0 0.0
2018-Apr-04 06:28N 18°00' W 063°03'0 0.0
2018-Apr-04 05:58N 18°00' W 063°03'0 0.0
2018-Apr-04 05:28N 18°00' W 063°03'0 0.0
2018-Apr-04 04:58N 18°00' W 063°03'0 0.0
2018-Apr-04 04:28N 18°00' W 063°03'0 0.0
2018-Apr-04 03:58N 18°00' W 063°03'0 0.0
2018-Apr-04 03:25N 18°00' W 063°03'0 0.0
2018-Apr-04 02:58N 18°00' W 063°03'0 0.0
2018-Apr-04 02:28N 18°00' W 063°03'0 0.0
2018-Apr-04 01:58N 18°00' W 063°03'0 0.0
2018-Apr-04 01:19N 18°00' W 063°03'0 0.0
2018-Apr-04 00:49N 18°00' W 063°03'0 0.0
2018-Apr-04 00:28N 18°00' W 063°03'0 0.0
2018-Apr-03 23:49N 18°00' W 063°03'0 0.0
2018-Apr-03 23:19N 18°00' W 063°03'0 0.0
2018-Apr-03 22:49N 18°00' W 063°03'0 0.0
2018-Apr-03 22:19N 18°00' W 063°03'0 0.0
2018-Apr-03 21:53N 18°00' W 063°03'0 0.0
2018-Apr-03 21:19N 18°00' W 063°03'0 0.0
2018-Apr-03 20:52N 18°00' W 063°03'0 0.0
2018-Apr-03 20:19N 18°00' W 063°03'0 0.0
2018-Apr-03 19:55N 18°00' W 063°03'0 0.0
2018-Apr-03 19:25N 18°00' W 063°03'0 0.0
2018-Apr-03 18:55N 18°00' W 063°03'0 0.0
2018-Apr-03 18:25N 18°00' W 063°03'0 0.0
2018-Apr-03 17:55N 18°00' W 063°03'0 0.0
2018-Apr-03 17:25N 18°00' W 063°03'0 0.0
2018-Apr-03 16:55N 18°00' W 063°03'0 0.0
2018-Apr-03 16:25N 18°00' W 063°03'0 0.0
2018-Apr-03 15:55N 18°00' W 063°03'0 0.0
2018-Apr-03 15:25N 18°00' W 063°03'0 0.0
2018-Apr-03 14:58N 18°00' W 063°03'0 0.0
2018-Apr-03 14:28N 18°00' W 063°03'1 1.7
2018-Apr-03 13:51N 18°00' W 063°04'0 0.8
2018-Apr-03 13:27N 18°00' W 063°04'2 2.3
2018-Apr-03 12:47N 17°60' W 063°06'1 2.7
2018-Apr-03 12:28N 17°59' W 063°06'1 1.5
2018-Apr-03 11:44N 17°59' W 063°07'1 2.1
2018-Apr-03 11:26N 17°59' W 063°08'1 2.9
2018-Apr-03 11:00N 17°58' W 063°09'3 5.3
2018-Apr-03 10:30N 17°57' W 063°12'3 5.2
2018-Apr-03 09:57N 17°56' W 063°15'3 5.1
2018-Apr-03 09:28N 17°55' W 063°17'3 5.5
2018-Apr-03 08:57N 17°54' W 063°20'3 5.4
2018-Apr-03 08:26N 17°53' W 063°22'2 5.3
2018-Apr-03 07:59N 17°52' W 063°25'3 6.2
2018-Apr-03 07:28N 17°51' W 063°28'  
2018-Mar-26 13:06N 17°48' W 063°34'211.0
2018-Mar-26 12:53N 17°49' W 063°32'510.6
2018-Mar-26 12:25N 17°51' W 063°27'511.1
2018-Mar-26 11:57N 17°53' W 063°22'511.6
2018-Mar-26 11:30N 17°55' W 063°17'711.6
2018-Mar-26 10:57N 17°58' W 063°11'611.5
2018-Mar-26 10:27N 17°60' W 063°05'2 3.9
2018-Mar-26 09:50N 18°00' W 063°03'0 0.0
2018-Mar-26 09:20N 18°00' W 063°03'0 0.0
2018-Mar-26 08:53N 18°00' W 063°03'0 0.0
2018-Mar-26 07:37N 18°00' W 063°03'0 0.0
2018-Mar-26 07:23N 18°00' W 063°03'0 0.0
2018-Mar-26 06:56N 18°00' W 063°03'0 0.0
2018-Mar-26 06:19N 18°00' W 063°03'0 0.0
2018-Mar-26 05:55N 18°00' W 063°03'0 0.0
2018-Mar-26 05:25N 18°00' W 063°03'0 0.0
2018-Mar-26 04:23N 18°00' W 063°03'0 0.0
2018-Mar-26 03:53N 18°00' W 063°03'0 0.0
2018-Mar-26 03:29N 18°00' W 063°03'0 0.0
2018-Mar-26 02:59N 18°00' W 063°03'0 0.0
2018-Mar-26 02:29N 18°00' W 063°03'0 0.0
2018-Mar-26 01:59N 18°00' W 063°03'0 0.0
2018-Mar-26 01:28N 18°00' W 063°03'0 0.0
2018-Mar-26 00:59N 18°00' W 063°03'0 0.0
2018-Mar-26 00:28N 18°00' W 063°03'0 0.0
2018-Mar-25 23:59N 18°00' W 063°03'0 0.0
2018-Mar-25 23:29N 18°00' W 063°03'0 0.0
2018-Mar-25 22:59N 18°00' W 063°03'0 0.0
2018-Mar-25 22:28N 18°00' W 063°03'0 0.0
2018-Mar-25 21:46N 18°00' W 063°03'0 0.0
2018-Mar-25 21:29N 18°00' W 063°03'0 0.0
2018-Mar-25 20:46N 18°00' W 063°03'0 0.0
2018-Mar-25 20:04N 18°00' W 063°03'0 0.0
2018-Mar-25 19:19N 18°00' W 063°03'0 0.0
2018-Mar-25 18:52N 18°00' W 063°03'0 0.0
2018-Mar-25 18:23N 18°00' W 063°03'0 0.0
2018-Mar-25 17:53N 18°00' W 063°03'0 0.0
2018-Mar-25 17:23N 18°00' W 063°03'0 0.0
2018-Mar-25 16:53N 18°00' W 063°03'0 0.0
2018-Mar-25 16:23N 18°00' W 063°03'0 0.0
2018-Mar-25 15:49N 18°00' W 063°03'0 0.0
2018-Mar-25 15:23N 18°00' W 063°03'0 0.0
2018-Mar-25 14:53N 18°00' W 063°03'0 0.0
2018-Mar-25 14:23N 18°00' W 063°03'0 0.0
2018-Mar-25 13:56N 18°00' W 063°03'  
Track history (hours):
 
Tides and Currents Weather Stations Pressure Air Temp Water Temp Dewpoint Dewpoint Depression Visibility Wind Speed Wind Dir Waves Ship Positions

Dyna Bulk

Last reported at 2018-Apr-04 13:52 UTC. Time now 2018-Apr-26 11:38 UTC.
Position N 17°49' W 063°32'.
Warning: this ship's position is 21 days out of date.

Length 91 m; draft 4 m.

Type: Ship. MMSI: 377901055.

Date/timePositionNaut miles runAvg speedWind from/ knotsBaromVisibWave heightAir tempDewpointWater temp
2018-Apr-04 13:52N 17°49' W 063°32'410.8
2018-Apr-04 13:28N 17°50' W 063°28'511.2
2018-Apr-04 13:00N 17°52' W 063°23'611.1
2018-Apr-04 12:31N 17°55' W 063°18'510.8
2018-Apr-04 12:00N 17°57' W 063°13'610.8
2018-Apr-04 11:29N 17°59' W 063°07'4 6.8
2018-Apr-04 10:49N 18°00' W 063°03'0 0.0
2018-Apr-04 10:22N 18°00' W 063°03'0 0.0
2018-Apr-04 09:55N 18°00' W 063°03'0 0.0
2018-Apr-04 09:25N 18°00' W 063°03'0 0.0
2018-Apr-04 08:55N 18°00' W 063°03'0 0.0
2018-Apr-04 08:25N 18°00' W 063°03'0 0.0
2018-Apr-04 07:55N 18°00' W 063°03'0 0.0
2018-Apr-04 07:25N 18°00' W 063°03'0 0.0
2018-Apr-04 06:58N 18°00' W 063°03'0 0.0
2018-Apr-04 06:28N 18°00' W 063°03'0 0.0
2018-Apr-04 05:58N 18°00' W 063°03'0 0.0
2018-Apr-04 05:28N 18°00' W 063°03'0 0.0
2018-Apr-04 04:58N 18°00' W 063°03'0 0.0
2018-Apr-04 04:28N 18°00' W 063°03'0 0.0
2018-Apr-04 03:58N 18°00' W 063°03'0 0.0
2018-Apr-04 03:25N 18°00' W 063°03'0 0.0
2018-Apr-04 02:58N 18°00' W 063°03'0 0.0
2018-Apr-04 02:28N 18°00' W 063°03'0 0.0
2018-Apr-04 01:58N 18°00' W 063°03'0 0.0
2018-Apr-04 01:19N 18°00' W 063°03'0 0.0
2018-Apr-04 00:49N 18°00' W 063°03'0 0.0
2018-Apr-04 00:28N 18°00' W 063°03'0 0.0
2018-Apr-03 23:49N 18°00' W 063°03'0 0.0
2018-Apr-03 23:19N 18°00' W 063°03'0 0.0
2018-Apr-03 22:49N 18°00' W 063°03'0 0.0
2018-Apr-03 22:19N 18°00' W 063°03'0 0.0
2018-Apr-03 21:53N 18°00' W 063°03'0 0.0
2018-Apr-03 21:19N 18°00' W 063°03'0 0.0
2018-Apr-03 20:52N 18°00' W 063°03'0 0.0
2018-Apr-03 20:19N 18°00' W 063°03'0 0.0
2018-Apr-03 19:55N 18°00' W 063°03'0 0.0
2018-Apr-03 19:25N 18°00' W 063°03'0 0.0
2018-Apr-03 18:55N 18°00' W 063°03'0 0.0
2018-Apr-03 18:25N 18°00' W 063°03'0 0.0
2018-Apr-03 17:55N 18°00' W 063°03'0 0.0
2018-Apr-03 17:25N 18°00' W 063°03'0 0.0
2018-Apr-03 16:55N 18°00' W 063°03'0 0.0
2018-Apr-03 16:25N 18°00' W 063°03'0 0.0
2018-Apr-03 15:55N 18°00' W 063°03'0 0.0
2018-Apr-03 15:25N 18°00' W 063°03'0 0.0
2018-Apr-03 14:58N 18°00' W 063°03'0 0.0
2018-Apr-03 14:28N 18°00' W 063°03'1 1.7
2018-Apr-03 13:51N 18°00' W 063°04'0 0.8
2018-Apr-03 13:27N 18°00' W 063°04'2 2.3
2018-Apr-03 12:47N 17°60' W 063°06'1 2.7
2018-Apr-03 12:28N 17°59' W 063°06'1 1.5
2018-Apr-03 11:44N 17°59' W 063°07'1 2.1
2018-Apr-03 11:26N 17°59' W 063°08'1 2.9
2018-Apr-03 11:00N 17°58' W 063°09'3 5.3
2018-Apr-03 10:30N 17°57' W 063°12'3 5.2
2018-Apr-03 09:57N 17°56' W 063°15'3 5.1
2018-Apr-03 09:28N 17°55' W 063°17'3 5.5
2018-Apr-03 08:57N 17°54' W 063°20'3 5.4
2018-Apr-03 08:26N 17°53' W 063°22'2 5.3
2018-Apr-03 07:59N 17°52' W 063°25'3 6.2
2018-Apr-03 07:28N 17°51' W 063°28'  
2018-Mar-26 13:06N 17°48' W 063°34'211.0
2018-Mar-26 12:53N 17°49' W 063°32'510.6
2018-Mar-26 12:25N 17°51' W 063°27'511.1
2018-Mar-26 11:57N 17°53' W 063°22'511.6
2018-Mar-26 11:30N 17°55' W 063°17'711.6
2018-Mar-26 10:57N 17°58' W 063°11'611.5
2018-Mar-26 10:27N 17°60' W 063°05'2 3.9
2018-Mar-26 09:50N 18°00' W 063°03'0 0.0
2018-Mar-26 09:20N 18°00' W 063°03'0 0.0
2018-Mar-26 08:53N 18°00' W 063°03'0 0.0
2018-Mar-26 07:37N 18°00' W 063°03'0 0.0
2018-Mar-26 07:23N 18°00' W 063°03'0 0.0
2018-Mar-26 06:56N 18°00' W 063°03'0 0.0
2018-Mar-26 06:19N 18°00' W 063°03'0 0.0
2018-Mar-26 05:55N 18°00' W 063°03'0 0.0
2018-Mar-26 05:25N 18°00' W 063°03'0 0.0
2018-Mar-26 04:23N 18°00' W 063°03'0 0.0
2018-Mar-26 03:53N 18°00' W 063°03'0 0.0
2018-Mar-26 03:29N 18°00' W 063°03'0 0.0
2018-Mar-26 02:59N 18°00' W 063°03'0 0.0
2018-Mar-26 02:29N 18°00' W 063°03'0 0.0
2018-Mar-26 01:59N 18°00' W 063°03'0 0.0
2018-Mar-26 01:28N 18°00' W 063°03'0 0.0
2018-Mar-26 00:59N 18°00' W 063°03'0 0.0
2018-Mar-26 00:28N 18°00' W 063°03'0 0.0
2018-Mar-25 23:59N 18°00' W 063°03'0 0.0
2018-Mar-25 23:29N 18°00' W 063°03'0 0.0
2018-Mar-25 22:59N 18°00' W 063°03'0 0.0
2018-Mar-25 22:28N 18°00' W 063°03'0 0.0
2018-Mar-25 21:46N 18°00' W 063°03'0 0.0
2018-Mar-25 21:29N 18°00' W 063°03'0 0.0
2018-Mar-25 20:46N 18°00' W 063°03'0 0.0
2018-Mar-25 20:04N 18°00' W 063°03'0 0.0
2018-Mar-25 19:19N 18°00' W 063°03'0 0.0
2018-Mar-25 18:52N 18°00' W 063°03'0 0.0
2018-Mar-25 18:23N 18°00' W 063°03'0 0.0
2018-Mar-25 17:53N 18°00' W 063°03'0 0.0
2018-Mar-25 17:23N 18°00' W 063°03'0 0.0
2018-Mar-25 16:53N 18°00' W 063°03'0 0.0
2018-Mar-25 16:23N 18°00' W 063°03'0 0.0
2018-Mar-25 15:49N 18°00' W 063°03'0 0.0
2018-Mar-25 15:23N 18°00' W 063°03'0 0.0
2018-Mar-25 14:53N 18°00' W 063°03'0 0.0
2018-Mar-25 14:23N 18°00' W 063°03'0 0.0
2018-Mar-25 13:56N 18°00' W 063°03'  

Dump ship's entire track history